createdAt,value
2018-07-04T19:24:41.081Z,25.41
2018-07-04T19:25:59.012Z,25.4
2018-07-04T19:27:14.094Z,25.25
2018-07-04T19:28:28.933Z,25.26
2018-07-04T19:29:43.573Z,25.19
2018-07-04T19:30:58.812Z,25.15
2018-07-04T19:32:13.377Z,25.16
2018-07-04T19:33:28.095Z,25.11
2018-07-04T19:34:43.231Z,24.97
2018-07-04T19:35:58.317Z,24.99
2018-07-04T19:37:13.464Z,24.99
2018-07-04T19:38:28.824Z,24.93
2018-07-04T19:39:43.282Z,24.88
2018-07-04T19:40:58.309Z,24.78
2018-07-04T19:42:13.588Z,24.85
2018-07-04T19:43:29.522Z,24.81
2018-07-04T19:44:45.276Z,24.79
2018-07-04T19:46:00.642Z,24.69
2018-07-04T19:47:15.411Z,24.69
2018-07-04T19:48:30.302Z,24.59
2018-07-04T19:49:45.188Z,24.56
2018-07-04T19:51:00.236Z,24.51
2018-07-04T19:52:15.126Z,24.41
2018-07-04T19:53:30.027Z,24.4
2018-07-04T19:54:45.241Z,24.25
2018-07-04T19:56:00.426Z,24.25
2018-07-04T19:57:15.349Z,24.19
2018-07-04T19:58:30.307Z,24.16
2018-07-04T19:59:44.602Z,24.01
2018-07-04T20:00:59.140Z,23.94
2018-07-04T20:02:13.637Z,23.88
2018-07-04T20:03:28.373Z,23.92
2018-07-04T20:04:42.627Z,23.81
2018-07-04T20:05:57.202Z,23.82
2018-07-04T20:07:11.505Z,23.77
2018-07-04T20:08:26.347Z,23.81
2018-07-04T20:09:40.427Z,23.71
2018-07-04T20:10:55.157Z,23.63
2018-07-04T20:12:09.821Z,23.7
2018-07-04T20:13:23.831Z,23.59
2018-07-04T20:14:39.053Z,23.59
2018-07-04T20:15:53.630Z,23.56
2018-07-04T20:17:07.700Z,23.56
2018-07-04T20:18:23.377Z,23.63
2018-07-04T20:19:37.223Z,23.48
2018-07-04T20:20:51.902Z,23.49
2018-07-04T20:22:06.630Z,23.47
2018-07-04T20:23:21.826Z,23.49
2018-07-04T20:24:36.143Z,23.49
2018-07-04T20:25:51.136Z,23.51
2018-07-04T20:27:06.231Z,23.58
2018-07-04T20:28:24.749Z,23.54
2018-07-04T20:29:39.126Z,23.52
2018-07-04T20:30:53.562Z,23.48
2018-07-04T20:32:07.518Z,23.36
2018-07-04T20:33:22.093Z,23.29
2018-07-04T20:34:36.462Z,23.25
2018-07-04T20:35:51.736Z,23.42
2018-07-04T20:37:06.069Z,23.34
2018-07-04T20:38:22.041Z,23.26
2018-07-04T20:39:36.886Z,23.29
2018-07-04T20:40:51.507Z,23.25
2018-07-04T20:42:05.860Z,23.26
2018-07-04T20:43:20.702Z,23.28
2018-07-04T20:44:37.667Z,23.26
2018-07-04T20:45:52.537Z,23.25
2018-07-04T20:47:06.886Z,23.42
2018-07-04T20:48:22.280Z,23.26
2018-07-04T20:49:37.123Z,23.29
2018-07-04T20:50:51.492Z,23.23
2018-07-04T20:52:06.109Z,23.26
2018-07-04T20:53:20.702Z,23.06
2018-07-04T20:54:36.026Z,23.13
2018-07-04T20:55:51.048Z,23.1
2018-07-04T20:57:05.934Z,23.18
2018-07-04T20:58:20.040Z,23.06
2018-07-04T20:59:34.596Z,23.04
2018-07-04T21:00:48.743Z,23.06
2018-07-04T21:02:03.523Z,23.01
2018-07-04T21:03:17.433Z,23.07
2018-07-04T21:04:31.981Z,23.01
2018-07-04T21:05:47.252Z,23.08
2018-07-04T21:07:02.748Z,23.11
2018-07-04T21:08:17.416Z,22.98
2018-07-04T21:09:32.451Z,22.93
2018-07-04T21:10:48.695Z,23.01
2018-07-04T21:12:03.314Z,22.96
2018-07-04T21:13:17.555Z,22.84
2018-07-04T21:14:32.606Z,22.84
2018-07-04T21:15:46.877Z,22.68
2018-07-04T21:17:02.369Z,22.61
2018-07-04T21:18:17.173Z,22.51
2018-07-04T21:19:32.245Z,22.59
2018-07-04T21:20:47.703Z,22.56
2018-07-04T21:22:02.282Z,22.51
2018-07-04T21:23:17.874Z,22.55
2018-07-04T21:24:32.779Z,22.55
2018-07-04T21:25:47.576Z,22.41
2018-07-04T21:27:02.106Z,22.44
2018-07-04T21:28:17.234Z,22.47
2018-07-04T21:29:32.028Z,22.38
2018-07-04T21:30:46.909Z,22.41
2018-07-04T21:32:02.014Z,22.34
2018-07-04T21:33:16.633Z,22.26
2018-07-04T21:34:31.368Z,22.21
2018-07-04T21:35:45.919Z,22.22
2018-07-04T21:37:00.751Z,22.08
2018-07-04T21:38:14.995Z,22.1
2018-07-04T21:39:29.490Z,22.07
2018-07-04T21:40:44.180Z,22.03
2018-07-04T21:41:59.283Z,22.04
2018-07-04T21:43:13.836Z,22.07
2018-07-04T21:44:28.361Z,21.96
2018-07-04T21:45:43.173Z,21.89
2018-07-04T21:46:57.283Z,21.83
2018-07-04T21:48:11.539Z,21.84
2018-07-04T21:49:26.311Z,21.75
2018-07-04T21:50:40.621Z,21.66
2018-07-04T21:51:56.075Z,21.69
2018-07-04T21:53:11.091Z,21.58
2018-07-04T21:54:26.626Z,21.6
2018-07-04T21:55:40.840Z,21.5
2018-07-04T21:56:55.442Z,21.56
2018-07-04T21:58:10.447Z,21.51
2018-07-04T21:59:25.162Z,21.51
2018-07-04T22:00:40.395Z,21.58
2018-07-04T22:01:55.229Z,21.5
2018-07-04T22:03:09.706Z,21.44
2018-07-04T22:04:24.707Z,21.44
2018-07-04T22:05:39.019Z,21.37
2018-07-04T22:06:54.007Z,21.33
2018-07-04T22:08:08.827Z,21.33
2018-07-04T22:09:23.286Z,21.29
2018-07-04T22:10:44.534Z,21.23
2018-07-04T22:11:59.747Z,21.22
2018-07-04T22:13:14.333Z,21.25
2018-07-04T22:14:29.008Z,21.19
2018-07-04T22:15:43.695Z,21.1
2018-07-04T22:16:59.411Z,21.08
2018-07-04T22:18:14.417Z,21.08
2018-07-04T22:19:28.953Z,21.05
2018-07-04T22:20:43.376Z,21.03
2018-07-04T22:21:57.362Z,21.05
2018-07-04T22:23:11.530Z,20.95
2018-07-04T22:24:26.443Z,20.95
2018-07-04T22:25:41.565Z,20.98
2018-07-04T22:26:55.787Z,21.01
2018-07-04T22:28:10.313Z,21.05
2018-07-04T22:29:25.542Z,21.05
2018-07-04T22:30:40.488Z,21.13
2018-07-04T22:31:55.534Z,21.05
2018-07-04T22:33:09.883Z,20.96
2018-07-04T22:34:24.099Z,20.89
2018-07-04T22:35:38.936Z,21.03
2018-07-04T22:36:54.396Z,20.96
2018-07-04T22:38:09.374Z,21
2018-07-04T22:39:24.072Z,20.95
2018-07-04T22:40:38.594Z,21.03
2018-07-04T22:41:52.822Z,20.98
2018-07-04T22:43:07.191Z,21.01
2018-07-04T22:44:21.989Z,21
2018-07-04T22:45:36.482Z,20.98
2018-07-04T22:46:50.980Z,20.89
2018-07-04T22:48:05.319Z,20.95
2018-07-04T22:49:20.537Z,20.89
2018-07-04T22:50:35.131Z,20.88
2018-07-04T22:51:49.842Z,20.73
2018-07-04T22:53:04.469Z,20.74
2018-07-04T22:54:18.689Z,20.73
2018-07-04T22:55:33.414Z,20.64
2018-07-04T22:56:48.423Z,20.58
2018-07-04T22:58:03.134Z,20.59
2018-07-04T22:59:17.727Z,20.6
2018-07-04T23:00:32.426Z,20.48
2018-07-04T23:01:46.614Z,20.4
2018-07-04T23:03:00.909Z,20.46
2018-07-04T23:04:14.897Z,20.49
2018-07-04T23:05:28.848Z,20.44
2018-07-04T23:06:43.070Z,20.5
2018-07-04T23:07:57.790Z,20.34
2018-07-04T23:09:12.666Z,20.37
2018-07-04T23:10:26.903Z,20.37
2018-07-04T23:11:41.903Z,20.37
2018-07-04T23:12:56.370Z,20.34
2018-07-04T23:14:10.587Z,20.42
2018-07-04T23:15:25.137Z,20.39
2018-07-04T23:16:39.884Z,20.44
2018-07-04T23:17:54.616Z,20.5
2018-07-04T23:19:09.193Z,20.4
2018-07-04T23:20:23.428Z,20.44
2018-07-04T23:21:38.463Z,20.4
2018-07-04T23:22:52.438Z,20.36
2018-07-04T23:24:07.142Z,20.3
2018-07-04T23:25:21.943Z,20.36
2018-07-04T23:26:36.402Z,20.24
2018-07-04T23:27:51.409Z,20.3
2018-07-04T23:29:05.961Z,20.33
2018-07-04T23:30:20.185Z,20.27
2018-07-04T23:31:34.146Z,20.29
2018-07-04T23:32:48.885Z,20.17
2018-07-04T23:34:03.556Z,20.11
2018-07-04T23:35:17.646Z,20.11
2018-07-04T23:36:31.883Z,20.07
2018-07-04T23:37:46.868Z,19.99
2018-07-04T23:39:01.339Z,20.03
2018-07-04T23:40:15.975Z,19.84
2018-07-04T23:41:30.756Z,19.9
2018-07-04T23:42:45.252Z,19.85
2018-07-04T23:43:59.781Z,19.7
2018-07-04T23:45:14.705Z,19.7
2018-07-04T23:46:30.212Z,19.64
2018-07-04T23:47:44.465Z,19.77
2018-07-04T23:48:58.920Z,19.81
2018-07-04T23:50:13.192Z,19.84
2018-07-04T23:51:28.239Z,19.82
2018-07-04T23:52:42.733Z,19.84
2018-07-04T23:53:57.183Z,19.84
2018-07-04T23:55:11.559Z,19.78
2018-07-04T23:56:26.310Z,19.85
2018-07-04T23:57:40.494Z,19.84
2018-07-04T23:58:54.778Z,19.78
